Terminal Aerodrome Forecast
Issued by NWS

Home | Current Version | Previous Version | Graphics & Text | Print | Product List | Glossary On
Versions: 1 2 3 4 5 6 7 8 9 10 11 12 13 14 15 16 17 18 19
000
FTUS43 KBIS 281100
TAFJMS
TAF
KJMS 281133Z 2812/2912 03014KT P6SM BKN070
     FM281500 02015KT P6SM SCT020 BKN030 OVC050
     FM281800 02016G22KT P6SM VCSH BKN015 OVC025
     FM290200 02015KT 5SM BR VCSH BKN012 OVC020
     FM290700 06010KT 3SM BR OVC010=

USA.gov is the U.S. government's official web portal to all federal, state and local government web resources and services.